sensor_id;sensor_type;location;lat;lon;timestamp;P1;durP1;ratioP1;P2;durP2;ratioP2
17201;SDS011;8717;53.588;10.176;2024-03-06T00:00:36;11.60;;;8.47;;
17201;SDS011;8717;53.588;10.176;2024-03-06T00:03:03;9.83;;;7.97;;
17201;SDS011;8717;53.588;10.176;2024-03-06T00:05:30;12.57;;;8.10;;
17201;SDS011;8717;53.588;10.176;2024-03-06T00:07:58;10.90;;;8.37;;
17201;SDS011;8717;53.588;10.176;2024-03-06T00:10:25;13.33;;;8.33;;
17201;SDS011;8717;53.588;10.176;2024-03-06T00:12:52;9.87;;;7.83;;
17201;SDS011;8717;53.588;10.176;2024-03-06T00:15:19;10.80;;;7.70;;
17201;SDS011;8717;53.588;10.176;2024-03-06T00:17:46;12.50;;;7.97;;
17201;SDS011;8717;53.588;10.176;2024-03-06T00:20:13;10.67;;;7.53;;
17201;SDS011;8717;53.588;10.176;2024-03-06T00:22:39;9.57;;;7.27;;
17201;SDS011;8717;53.588;10.176;2024-03-06T00:25:08;10.07;;;8.13;;
17201;SDS011;8717;53.588;10.176;2024-03-06T00:27:34;10.13;;;7.93;;
17201;SDS011;8717;53.588;10.176;2024-03-06T00:30:01;10.90;;;7.90;;
17201;SDS011;8717;53.588;10.176;2024-03-06T00:32:27;10.10;;;7.57;;
17201;SDS011;8717;53.588;10.176;2024-03-06T00:34:54;13.37;;;8.17;;
17201;SDS011;8717;53.588;10.176;2024-03-06T00:37:21;10.43;;;7.73;;
17201;SDS011;8717;53.588;10.176;2024-03-06T00:39:48;11.53;;;8.33;;
17201;SDS011;8717;53.588;10.176;2024-03-06T00:42:16;9.70;;;7.37;;
17201;SDS011;8717;53.588;10.176;2024-03-06T00:44:43;10.13;;;7.50;;
17201;SDS011;8717;53.588;10.176;2024-03-06T00:47:10;11.03;;;7.20;;
17201;SDS011;8717;53.588;10.176;2024-03-06T00:49:37;10.37;;;7.90;;
17201;SDS011;8717;53.588;10.176;2024-03-06T00:52:07;10.13;;;7.77;;
17201;SDS011;8717;53.588;10.176;2024-03-06T00:54:34;14.07;;;8.37;;
17201;SDS011;8717;53.588;10.176;2024-03-06T00:57:01;11.33;;;8.30;;
17201;SDS011;8717;53.588;10.176;2024-03-06T00:59:28;13.37;;;8.73;;
17201;SDS011;8717;53.588;10.176;2024-03-06T01:01:56;10.97;;;7.67;;
17201;SDS011;8717;53.588;10.176;2024-03-06T01:04:22;10.70;;;8.27;;
17201;SDS011;8717;53.588;10.176;2024-03-06T01:06:50;13.37;;;8.80;;
17201;SDS011;8717;53.588;10.176;2024-03-06T01:09:16;11.10;;;8.37;;
17201;SDS011;8717;53.588;10.176;2024-03-06T01:11:43;9.30;;;7.90;;
17201;SDS011;8717;53.588;10.176;2024-03-06T01:14:12;11.53;;;8.50;;
17201;SDS011;8717;53.588;10.176;2024-03-06T01:16:40;14.73;;;8.13;;
17201;SDS011;8717;53.588;10.176;2024-03-06T01:19:07;12.40;;;8.07;;
17201;SDS011;8717;53.588;10.176;2024-03-06T01:21:34;12.53;;;8.87;;
17201;SDS011;8717;53.588;10.176;2024-03-06T01:24:01;10.60;;;7.63;;
17201;SDS011;8717;53.588;10.176;2024-03-06T01:26:28;12.50;;;7.90;;
17201;SDS011;8717;53.588;10.176;2024-03-06T01:28:55;11.40;;;8.30;;
17201;SDS011;8717;53.588;10.176;2024-03-06T01:31:22;10.37;;;8.23;;
17201;SDS011;8717;53.588;10.176;2024-03-06T01:33:50;10.80;;;7.80;;
17201;SDS011;8717;53.588;10.176;2024-03-06T01:36:17;11.83;;;8.20;;
17201;SDS011;8717;53.588;10.176;2024-03-06T01:38:44;9.83;;;7.87;;
17201;SDS011;8717;53.588;10.176;2024-03-06T01:41:11;11.53;;;8.40;;
17201;SDS011;8717;53.588;10.176;2024-03-06T01:43:40;9.23;;;7.17;;
17201;SDS011;8717;53.588;10.176;2024-03-06T01:46:07;12.57;;;8.57;;
17201;SDS011;8717;53.588;10.176;2024-03-06T01:48:33;11.33;;;7.90;;
17201;SDS011;8717;53.588;10.176;2024-03-06T01:51:02;14.63;;;8.33;;
17201;SDS011;8717;53.588;10.176;2024-03-06T01:53:31;14.17;;;8.27;;
17201;SDS011;8717;53.588;10.176;2024-03-06T01:55:59;10.23;;;7.53;;
17201;SDS011;8717;53.588;10.176;2024-03-06T01:58:26;11.93;;;7.97;;
17201;SDS011;8717;53.588;10.176;2024-03-06T02:00:54;12.77;;;8.70;;
17201;SDS011;8717;53.588;10.176;2024-03-06T02:03:21;11.80;;;8.03;;
17201;SDS011;8717;53.588;10.176;2024-03-06T02:05:48;10.53;;;7.33;;
17201;SDS011;8717;53.588;10.176;2024-03-06T02:08:17;9.67;;;7.67;;
17201;SDS011;8717;53.588;10.176;2024-03-06T02:10:44;11.20;;;7.80;;
17201;SDS011;8717;53.588;10.176;2024-03-06T02:13:11;8.80;;;7.07;;
17201;SDS011;8717;53.588;10.176;2024-03-06T02:15:39;9.60;;;7.20;;
17201;SDS011;8717;53.588;10.176;2024-03-06T02:18:06;8.00;;;7.07;;
17201;SDS011;8717;53.588;10.176;2024-03-06T02:20:35;9.40;;;7.33;;
17201;SDS011;8717;53.588;10.176;2024-03-06T02:23:04;9.33;;;6.67;;
17201;SDS011;8717;53.588;10.176;2024-03-06T02:25:31;9.47;;;7.00;;
17201;SDS011;8717;53.588;10.176;2024-03-06T02:27:58;9.80;;;7.33;;
17201;SDS011;8717;53.588;10.176;2024-03-06T02:30:25;9.43;;;6.20;;
17201;SDS011;8717;53.588;10.176;2024-03-06T02:32:51;9.67;;;6.27;;
17201;SDS011;8717;53.588;10.176;2024-03-06T02:35:18;10.73;;;6.10;;
17201;SDS011;8717;53.588;10.176;2024-03-06T02:37:46;7.30;;;5.80;;
17201;SDS011;8717;53.588;10.176;2024-03-06T02:40:13;9.73;;;6.53;;
17201;SDS011;8717;53.588;10.176;2024-03-06T02:42:40;7.17;;;5.47;;
17201;SDS011;8717;53.588;10.176;2024-03-06T02:45:07;7.93;;;5.50;;
17201;SDS011;8717;53.588;10.176;2024-03-06T02:47:34;8.37;;;5.60;;
17201;SDS011;8717;53.588;10.176;2024-03-06T02:50:01;12.40;;;5.93;;
17201;SDS011;8717;53.588;10.176;2024-03-06T02:52:28;10.10;;;5.73;;
17201;SDS011;8717;53.588;10.176;2024-03-06T02:54:56;10.00;;;5.43;;
17201;SDS011;8717;53.588;10.176;2024-03-06T02:57:23;12.27;;;6.27;;
17201;SDS011;8717;53.588;10.176;2024-03-06T02:59:52;9.43;;;5.80;;
17201;SDS011;8717;53.588;10.176;2024-03-06T03:02:19;8.23;;;5.73;;
17201;SDS011;8717;53.588;10.176;2024-03-06T03:04:46;9.73;;;5.40;;
17201;SDS011;8717;53.588;10.176;2024-03-06T03:07:13;9.23;;;5.30;;
17201;SDS011;8717;53.588;10.176;2024-03-06T03:09:39;8.83;;;5.43;;
17201;SDS011;8717;53.588;10.176;2024-03-06T03:12:08;8.43;;;5.50;;
17201;SDS011;8717;53.588;10.176;2024-03-06T03:14:36;9.37;;;6.33;;
17201;SDS011;8717;53.588;10.176;2024-03-06T03:17:03;7.50;;;5.80;;
17201;SDS011;8717;53.588;10.176;2024-03-06T03:19:30;7.37;;;5.00;;
17201;SDS011;8717;53.588;10.176;2024-03-06T03:21:57;9.13;;;5.67;;
17201;SDS011;8717;53.588;10.176;2024-03-06T03:24:24;7.10;;;5.50;;
17201;SDS011;8717;53.588;10.176;2024-03-06T03:26:51;7.60;;;5.23;;
17201;SDS011;8717;53.588;10.176;2024-03-06T03:29:20;9.83;;;5.57;;
17201;SDS011;8717;53.588;10.176;2024-03-06T03:31:46;9.47;;;5.77;;
17201;SDS011;8717;53.588;10.176;2024-03-06T03:34:13;10.73;;;5.50;;
17201;SDS011;8717;53.588;10.176;2024-03-06T03:36:40;6.97;;;5.50;;
17201;SDS011;8717;53.588;10.176;2024-03-06T03:39:07;7.63;;;5.70;;
17201;SDS011;8717;53.588;10.176;2024-03-06T03:41:42;7.43;;;5.60;;
17201;SDS011;8717;53.588;10.176;2024-03-06T03:44:11;7.33;;;5.17;;
17201;SDS011;8717;53.588;10.176;2024-03-06T03:46:39;6.17;;;5.33;;
17201;SDS011;8717;53.588;10.176;2024-03-06T03:49:06;6.60;;;5.57;;
17201;SDS011;8717;53.588;10.176;2024-03-06T03:51:34;8.13;;;5.50;;
17201;SDS011;8717;53.588;10.176;2024-03-06T03:54:01;6.63;;;5.40;;
17201;SDS011;8717;53.588;10.176;2024-03-06T03:56:28;8.27;;;5.40;;
17201;SDS011;8717;53.588;10.176;2024-03-06T03:58:55;6.80;;;5.23;;
17201;SDS011;8717;53.588;10.176;2024-03-06T04:01:23;9.13;;;5.53;;
17201;SDS011;8717;53.588;10.176;2024-03-06T04:03:52;7.37;;;5.50;;
17201;SDS011;8717;53.588;10.176;2024-03-06T04:06:19;7.70;;;5.07;;
17201;SDS011;8717;53.588;10.176;2024-03-06T04:08:46;6.67;;;5.30;;
17201;SDS011;8717;53.588;10.176;2024-03-06T04:11:13;8.40;;;5.23;;
17201;SDS011;8717;53.588;10.176;2024-03-06T04:13:40;7.70;;;5.70;;
17201;SDS011;8717;53.588;10.176;2024-03-06T04:16:07;6.27;;;4.83;;
17201;SDS011;8717;53.588;10.176;2024-03-06T04:18:34;7.83;;;5.40;;
17201;SDS011;8717;53.588;10.176;2024-03-06T04:21:03;6.47;;;5.50;;
17201;SDS011;8717;53.588;10.176;2024-03-06T04:23:31;6.93;;;5.20;;
17201;SDS011;8717;53.588;10.176;2024-03-06T04:25:59;6.30;;;5.17;;
17201;SDS011;8717;53.588;10.176;2024-03-06T04:28:26;7.57;;;5.73;;
17201;SDS011;8717;53.588;10.176;2024-03-06T04:30:53;9.30;;;5.53;;
17201;SDS011;8717;53.588;10.176;2024-03-06T04:33:20;8.07;;;5.20;;
17201;SDS011;8717;53.588;10.176;2024-03-06T04:35:47;7.90;;;5.57;;
17201;SDS011;8717;53.588;10.176;2024-03-06T04:38:15;7.50;;;5.27;;
17201;SDS011;8717;53.588;10.176;2024-03-06T04:40:42;7.60;;;5.50;;
17201;SDS011;8717;53.588;10.176;2024-03-06T04:43:10;9.03;;;6.17;;
17201;SDS011;8717;53.588;10.176;2024-03-06T04:45:36;7.77;;;5.57;;
17201;SDS011;8717;53.588;10.176;2024-03-06T04:48:04;8.27;;;5.90;;
17201;SDS011;8717;53.588;10.176;2024-03-06T04:50:31;7.67;;;5.60;;
17201;SDS011;8717;53.588;10.176;2024-03-06T04:52:58;6.97;;;5.03;;
17201;SDS011;8717;53.588;10.176;2024-03-06T04:55:27;10.80;;;5.87;;
17201;SDS011;8717;53.588;10.176;2024-03-06T04:57:55;7.97;;;6.17;;
17201;SDS011;8717;53.588;10.176;2024-03-06T05:00:22;8.03;;;5.73;;
17201;SDS011;8717;53.588;10.176;2024-03-06T05:02:49;9.10;;;5.67;;
17201;SDS011;8717;53.588;10.176;2024-03-06T05:05:16;6.80;;;5.67;;
17201;SDS011;8717;53.588;10.176;2024-03-06T05:07:42;9.00;;;6.00;;
17201;SDS011;8717;53.588;10.176;2024-03-06T05:10:10;6.77;;;6.07;;
17201;SDS011;8717;53.588;10.176;2024-03-06T05:12:38;8.10;;;6.07;;
17201;SDS011;8717;53.588;10.176;2024-03-06T05:15:05;10.13;;;6.20;;
17201;SDS011;8717;53.588;10.176;2024-03-06T05:17:33;9.23;;;6.07;;
17201;SDS011;8717;53.588;10.176;2024-03-06T05:20:00;10.97;;;6.43;;
17201;SDS011;8717;53.588;10.176;2024-03-06T05:22:28;8.70;;;5.93;;
17201;SDS011;8717;53.588;10.176;2024-03-06T05:24:55;6.53;;;5.43;;
17201;SDS011;8717;53.588;10.176;2024-03-06T05:27:23;7.43;;;5.97;;
17201;SDS011;8717;53.588;10.176;2024-03-06T05:29:51;9.27;;;6.43;;
17201;SDS011;8717;53.588;10.176;2024-03-06T05:32:18;10.43;;;6.23;;
17201;SDS011;8717;53.588;10.176;2024-03-06T05:34:46;9.40;;;6.30;;
17201;SDS011;8717;53.588;10.176;2024-03-06T05:37:13;9.10;;;5.90;;
17201;SDS011;8717;53.588;10.176;2024-03-06T05:39:39;7.63;;;6.33;;
17201;SDS011;8717;53.588;10.176;2024-03-06T05:42:07;8.90;;;6.03;;
17201;SDS011;8717;53.588;10.176;2024-03-06T05:44:34;9.03;;;7.00;;
17201;SDS011;8717;53.588;10.176;2024-03-06T05:47:02;9.07;;;6.70;;
17201;SDS011;8717;53.588;10.176;2024-03-06T05:49:29;9.83;;;6.87;;
17201;SDS011;8717;53.588;10.176;2024-03-06T05:51:57;8.90;;;6.33;;
17201;SDS011;8717;53.588;10.176;2024-03-06T05:54:24;10.23;;;6.17;;
17201;SDS011;8717;53.588;10.176;2024-03-06T05:56:52;7.60;;;6.50;;
17201;SDS011;8717;53.588;10.176;2024-03-06T05:59:19;10.30;;;6.23;;
17201;SDS011;8717;53.588;10.176;2024-03-06T06:01:46;8.50;;;6.40;;
17201;SDS011;8717;53.588;10.176;2024-03-06T06:04:14;9.37;;;6.60;;
17201;SDS011;8717;53.588;10.176;2024-03-06T06:06:41;8.03;;;6.13;;
17201;SDS011;8717;53.588;10.176;2024-03-06T06:09:08;8.80;;;6.63;;
17201;SDS011;8717;53.588;10.176;2024-03-06T06:11:40;10.00;;;7.00;;
17201;SDS011;8717;53.588;10.176;2024-03-06T06:14:08;8.93;;;6.90;;
17201;SDS011;8717;53.588;10.176;2024-03-06T06:16:35;9.57;;;6.73;;
17201;SDS011;8717;53.588;10.176;2024-03-06T06:19:02;11.23;;;7.20;;
17201;SDS011;8717;53.588;10.176;2024-03-06T06:21:32;8.90;;;7.00;;
17201;SDS011;8717;53.588;10.176;2024-03-06T06:24:00;10.27;;;6.90;;
17201;SDS011;8717;53.588;10.176;2024-03-06T06:26:28;9.87;;;6.87;;
17201;SDS011;8717;53.588;10.176;2024-03-06T06:28:55;8.27;;;6.90;;
17201;SDS011;8717;53.588;10.176;2024-03-06T06:31:22;10.23;;;7.10;;
17201;SDS011;8717;53.588;10.176;2024-03-06T06:33:50;7.73;;;6.27;;
17201;SDS011;8717;53.588;10.176;2024-03-06T06:36:17;9.07;;;6.67;;
17201;SDS011;8717;53.588;10.176;2024-03-06T06:38:45;8.40;;;6.60;;
17201;SDS011;8717;53.588;10.176;2024-03-06T06:41:13;11.73;;;7.73;;
17201;SDS011;8717;53.588;10.176;2024-03-06T06:43:40;9.40;;;6.67;;
17201;SDS011;8717;53.588;10.176;2024-03-06T06:46:07;9.83;;;7.00;;
17201;SDS011;8717;53.588;10.176;2024-03-06T06:48:34;7.97;;;6.10;;
17201;SDS011;8717;53.588;10.176;2024-03-06T06:51:04;7.77;;;6.20;;
17201;SDS011;8717;53.588;10.176;2024-03-06T06:53:31;9.13;;;7.13;;
17201;SDS011;8717;53.588;10.176;2024-03-06T06:55:59;11.13;;;6.70;;
17201;SDS011;8717;53.588;10.176;2024-03-06T06:58:26;8.43;;;6.57;;
17201;SDS011;8717;53.588;10.176;2024-03-06T07:00:53;7.10;;;5.97;;
17201;SDS011;8717;53.588;10.176;2024-03-06T07:03:19;8.87;;;6.60;;
17201;SDS011;8717;53.588;10.176;2024-03-06T07:05:48;9.03;;;6.93;;
17201;SDS011;8717;53.588;10.176;2024-03-06T07:08:15;8.67;;;6.30;;
17201;SDS011;8717;53.588;10.176;2024-03-06T07:10:41;7.50;;;6.17;;
17201;SDS011;8717;53.588;10.176;2024-03-06T07:13:09;9.40;;;6.53;;
17201;SDS011;8717;53.588;10.176;2024-03-06T07:15:36;7.00;;;6.30;;
17201;SDS011;8717;53.588;10.176;2024-03-06T07:18:03;7.57;;;6.10;;
17201;SDS011;8717;53.588;10.176;2024-03-06T07:20:30;9.57;;;6.97;;
17201;SDS011;8717;53.588;10.176;2024-03-06T07:22:57;6.90;;;5.93;;
17201;SDS011;8717;53.588;10.176;2024-03-06T07:25:23;10.67;;;6.30;;
17201;SDS011;8717;53.588;10.176;2024-03-06T07:27:50;8.20;;;6.17;;
17201;SDS011;8717;53.588;10.176;2024-03-06T07:30:19;7.60;;;5.80;;
17201;SDS011;8717;53.588;10.176;2024-03-06T07:32:46;8.20;;;6.20;;
17201;SDS011;8717;53.588;10.176;2024-03-06T07:35:12;8.53;;;6.07;;
17201;SDS011;8717;53.588;10.176;2024-03-06T07:37:39;8.77;;;6.30;;
17201;SDS011;8717;53.588;10.176;2024-03-06T07:40:10;6.90;;;5.90;;
17201;SDS011;8717;53.588;10.176;2024-03-06T07:42:37;9.80;;;5.90;;
17201;SDS011;8717;53.588;10.176;2024-03-06T07:45:04;7.73;;;5.23;;
17201;SDS011;8717;53.588;10.176;2024-03-06T07:47:33;8.53;;;6.00;;
17201;SDS011;8717;53.588;10.176;2024-03-06T07:50:02;7.27;;;5.83;;
17201;SDS011;8717;53.588;10.176;2024-03-06T07:52:31;7.10;;;5.80;;
17201;SDS011;8717;53.588;10.176;2024-03-06T07:54:58;8.60;;;5.57;;
17201;SDS011;8717;53.588;10.176;2024-03-06T07:57:24;7.07;;;5.37;;
17201;SDS011;8717;53.588;10.176;2024-03-06T07:59:51;8.83;;;5.27;;
17201;SDS011;8717;53.588;10.176;2024-03-06T08:02:19;6.90;;;5.40;;
17201;SDS011;8717;53.588;10.176;2024-03-06T08:04:47;6.00;;;5.13;;
17201;SDS011;8717;53.588;10.176;2024-03-06T08:07:14;7.37;;;5.83;;
17201;SDS011;8717;53.588;10.176;2024-03-06T08:09:41;5.77;;;5.17;;
17201;SDS011;8717;53.588;10.176;2024-03-06T08:12:08;5.83;;;5.07;;
17201;SDS011;8717;53.588;10.176;2024-03-06T08:14:35;5.73;;;5.13;;
17201;SDS011;8717;53.588;10.176;2024-03-06T08:17:02;7.23;;;5.10;;
17201;SDS011;8717;53.588;10.176;2024-03-06T08:19:28;6.33;;;5.20;;
17201;SDS011;8717;53.588;10.176;2024-03-06T08:21:56;6.10;;;5.00;;
17201;SDS011;8717;53.588;10.176;2024-03-06T08:24:23;7.50;;;5.00;;
17201;SDS011;8717;53.588;10.176;2024-03-06T08:26:50;7.37;;;5.23;;
17201;SDS011;8717;53.588;10.176;2024-03-06T08:29:17;6.10;;;5.50;;
17201;SDS011;8717;53.588;10.176;2024-03-06T08:31:44;5.60;;;4.70;;
17201;SDS011;8717;53.588;10.176;2024-03-06T08:34:11;5.77;;;4.43;;
17201;SDS011;8717;53.588;10.176;2024-03-06T08:36:37;6.37;;;4.77;;
17201;SDS011;8717;53.588;10.176;2024-03-06T08:39:05;7.47;;;5.23;;
17201;SDS011;8717;53.588;10.176;2024-03-06T08:41:32;6.80;;;5.17;;
17201;SDS011;8717;53.588;10.176;2024-03-06T08:43:59;7.03;;;5.20;;
17201;SDS011;8717;53.588;10.176;2024-03-06T08:46:27;5.97;;;4.90;;
17201;SDS011;8717;53.588;10.176;2024-03-06T08:48:53;6.23;;;4.90;;
17201;SDS011;8717;53.588;10.176;2024-03-06T08:51:20;6.23;;;4.57;;
17201;SDS011;8717;53.588;10.176;2024-03-06T08:53:47;6.10;;;4.63;;
17201;SDS011;8717;53.588;10.176;2024-03-06T08:56:15;7.13;;;5.10;;
17201;SDS011;8717;53.588;10.176;2024-03-06T08:58:42;5.70;;;4.67;;
17201;SDS011;8717;53.588;10.176;2024-03-06T09:01:08;7.50;;;4.37;;
17201;SDS011;8717;53.588;10.176;2024-03-06T09:03:35;6.23;;;4.47;;
17201;SDS011;8717;53.588;10.176;2024-03-06T09:06:02;5.70;;;4.60;;
17201;SDS011;8717;53.588;10.176;2024-03-06T09:08:29;5.03;;;4.50;;
17201;SDS011;8717;53.588;10.176;2024-03-06T09:10:56;5.13;;;4.60;;
17201;SDS011;8717;53.588;10.176;2024-03-06T09:13:25;6.10;;;4.67;;
17201;SDS011;8717;53.588;10.176;2024-03-06T09:15:52;6.50;;;5.03;;
17201;SDS011;8717;53.588;10.176;2024-03-06T09:18:18;6.00;;;4.60;;
17201;SDS011;8717;53.588;10.176;2024-03-06T09:20:46;5.43;;;4.40;;
17201;SDS011;8717;53.588;10.176;2024-03-06T09:23:12;5.90;;;4.93;;
17201;SDS011;8717;53.588;10.176;2024-03-06T09:25:40;6.13;;;4.87;;
17201;SDS011;8717;53.588;10.176;2024-03-06T09:28:07;5.90;;;4.77;;
17201;SDS011;8717;53.588;10.176;2024-03-06T09:30:35;5.57;;;5.00;;
17201;SDS011;8717;53.588;10.176;2024-03-06T09:33:02;5.47;;;4.80;;
17201;SDS011;8717;53.588;10.176;2024-03-06T09:35:29;4.90;;;4.20;;
17201;SDS011;8717;53.588;10.176;2024-03-06T09:37:57;6.13;;;5.00;;
17201;SDS011;8717;53.588;10.176;2024-03-06T09:40:26;6.30;;;5.00;;
17201;SDS011;8717;53.588;10.176;2024-03-06T09:42:54;6.73;;;5.20;;
17201;SDS011;8717;53.588;10.176;2024-03-06T09:45:21;5.37;;;4.83;;
17201;SDS011;8717;53.588;10.176;2024-03-06T09:47:50;7.53;;;5.10;;
17201;SDS011;8717;53.588;10.176;2024-03-06T09:50:18;5.73;;;5.13;;
17201;SDS011;8717;53.588;10.176;2024-03-06T09:52:50;6.03;;;4.87;;
17201;SDS011;8717;53.588;10.176;2024-03-06T09:55:18;5.97;;;4.77;;
17201;SDS011;8717;53.588;10.176;2024-03-06T09:57:47;6.03;;;4.90;;
17201;SDS011;8717;53.588;10.176;2024-03-06T10:00:15;8.20;;;5.07;;
17201;SDS011;8717;53.588;10.176;2024-03-06T10:02:46;7.77;;;4.97;;
17201;SDS011;8717;53.588;10.176;2024-03-06T10:05:21;6.80;;;5.57;;
17201;SDS011;8717;53.588;10.176;2024-03-06T10:07:48;6.37;;;5.23;;
17201;SDS011;8717;53.588;10.176;2024-03-06T10:10:16;7.63;;;5.43;;
17201;SDS011;8717;53.588;10.176;2024-03-06T10:12:44;6.30;;;5.40;;
17201;SDS011;8717;53.588;10.176;2024-03-06T10:15:13;7.70;;;5.97;;
17201;SDS011;8717;53.588;10.176;2024-03-06T10:17:40;7.00;;;5.83;;
17201;SDS011;8717;53.588;10.176;2024-03-06T10:20:18;7.37;;;6.50;;
17201;SDS011;8717;53.588;10.176;2024-03-06T10:22:47;8.27;;;6.70;;
17201;SDS011;8717;53.588;10.176;2024-03-06T10:25:17;8.20;;;6.80;;
17201;SDS011;8717;53.588;10.176;2024-03-06T10:27:44;7.27;;;6.03;;
17201;SDS011;8717;53.588;10.176;2024-03-06T10:30:12;10.90;;;5.93;;
17201;SDS011;8717;53.588;10.176;2024-03-06T10:32:41;7.53;;;6.10;;
17201;SDS011;8717;53.588;10.176;2024-03-06T10:35:17;6.37;;;5.27;;
17201;SDS011;8717;53.588;10.176;2024-03-06T10:37:46;6.57;;;5.40;;
17201;SDS011;8717;53.588;10.176;2024-03-06T10:40:14;9.27;;;5.70;;
17201;SDS011;8717;53.588;10.176;2024-03-06T10:42:42;7.87;;;5.87;;
17201;SDS011;8717;53.588;10.176;2024-03-06T10:45:10;7.40;;;5.97;;
17201;SDS011;8717;53.588;10.176;2024-03-06T10:47:40;6.03;;;5.37;;
17201;SDS011;8717;53.588;10.176;2024-03-06T10:50:12;7.40;;;5.60;;
17201;SDS011;8717;53.588;10.176;2024-03-06T10:52:42;6.20;;;5.47;;
17201;SDS011;8717;53.588;10.176;2024-03-06T10:55:13;6.17;;;5.27;;
17201;SDS011;8717;53.588;10.176;2024-03-06T10:57:41;5.97;;;4.90;;
17201;SDS011;8717;53.588;10.176;2024-03-06T11:00:09;6.90;;;5.53;;
17201;SDS011;8717;53.588;10.176;2024-03-06T11:02:41;6.80;;;5.63;;
17201;SDS011;8717;53.588;10.176;2024-03-06T11:05:09;8.27;;;6.40;;
17201;SDS011;8717;53.588;10.176;2024-03-06T11:07:36;7.70;;;6.27;;
17201;SDS011;8717;53.588;10.176;2024-03-06T11:10:05;9.77;;;6.30;;
17201;SDS011;8717;53.588;10.176;2024-03-06T11:12:33;10.00;;;6.50;;
17201;SDS011;8717;53.588;10.176;2024-03-06T11:15:13;8.10;;;5.90;;
17201;SDS011;8717;53.588;10.176;2024-03-06T11:17:40;7.63;;;6.13;;
17201;SDS011;8717;53.588;10.176;2024-03-06T11:20:07;10.97;;;6.10;;
17201;SDS011;8717;53.588;10.176;2024-03-06T11:25:57;7.33;;;5.83;;
17201;SDS011;8717;53.588;10.176;2024-03-06T11:28:28;10.27;;;6.37;;
17201;SDS011;8717;53.588;10.176;2024-03-06T11:30:56;8.53;;;6.17;;
17201;SDS011;8717;53.588;10.176;2024-03-06T11:33:28;8.07;;;5.87;;
17201;SDS011;8717;53.588;10.176;2024-03-06T11:36:17;6.40;;;5.57;;
17201;SDS011;8717;53.588;10.176;2024-03-06T11:38:52;6.07;;;5.47;;
17201;SDS011;8717;53.588;10.176;2024-03-06T11:41:21;7.93;;;6.33;;
17201;SDS011;8717;53.588;10.176;2024-03-06T11:43:50;8.10;;;6.43;;
17201;SDS011;8717;53.588;10.176;2024-03-06T11:46:18;8.20;;;6.63;;
17201;SDS011;8717;53.588;10.176;2024-03-06T11:48:51;9.23;;;6.03;;
17201;SDS011;8717;53.588;10.176;2024-03-06T11:51:19;8.23;;;6.70;;
17201;SDS011;8717;53.588;10.176;2024-03-06T11:53:49;8.73;;;6.97;;
17201;SDS011;8717;53.588;10.176;2024-03-06T11:56:16;10.67;;;6.23;;
17201;SDS011;8717;53.588;10.176;2024-03-06T11:58:46;8.67;;;6.47;;
17201;SDS011;8717;53.588;10.176;2024-03-06T12:01:13;9.63;;;6.70;;
17201;SDS011;8717;53.588;10.176;2024-03-06T12:03:41;8.10;;;6.53;;
17201;SDS011;8717;53.588;10.176;2024-03-06T12:06:08;7.67;;;6.03;;
17201;SDS011;8717;53.588;10.176;2024-03-06T12:08:35;7.53;;;6.73;;
17201;SDS011;8717;53.588;10.176;2024-03-06T12:11:02;9.03;;;6.10;;
17201;SDS011;8717;53.588;10.176;2024-03-06T12:13:30;8.20;;;6.27;;
17201;SDS011;8717;53.588;10.176;2024-03-06T12:15:58;7.97;;;6.43;;
17201;SDS011;8717;53.588;10.176;2024-03-06T12:18:25;7.90;;;5.53;;
17201;SDS011;8717;53.588;10.176;2024-03-06T12:20:52;9.10;;;6.60;;
17201;SDS011;8717;53.588;10.176;2024-03-06T12:23:19;7.57;;;6.20;;
17201;SDS011;8717;53.588;10.176;2024-03-06T12:26:01;7.57;;;5.90;;
17201;SDS011;8717;53.588;10.176;2024-03-06T12:28:29;9.30;;;6.73;;
17201;SDS011;8717;53.588;10.176;2024-03-06T12:30:56;7.90;;;6.30;;
17201;SDS011;8717;53.588;10.176;2024-03-06T12:33:27;9.10;;;6.03;;
17201;SDS011;8717;53.588;10.176;2024-03-06T12:36:01;8.97;;;6.33;;
17201;SDS011;8717;53.588;10.176;2024-03-06T12:38:29;9.03;;;6.57;;
17201;SDS011;8717;53.588;10.176;2024-03-06T12:40:56;6.57;;;5.87;;
17201;SDS011;8717;53.588;10.176;2024-03-06T12:43:23;9.93;;;6.83;;
17201;SDS011;8717;53.588;10.176;2024-03-06T12:45:50;8.27;;;6.00;;
17201;SDS011;8717;53.588;10.176;2024-03-06T12:48:19;8.40;;;6.27;;
17201;SDS011;8717;53.588;10.176;2024-03-06T12:50:48;8.10;;;5.87;;
17201;SDS011;8717;53.588;10.176;2024-03-06T12:53:17;8.33;;;6.00;;
17201;SDS011;8717;53.588;10.176;2024-03-06T12:55:44;7.20;;;6.13;;
17201;SDS011;8717;53.588;10.176;2024-03-06T12:58:11;8.77;;;5.67;;
17201;SDS011;8717;53.588;10.176;2024-03-06T13:00:38;8.50;;;6.03;;
17201;SDS011;8717;53.588;10.176;2024-03-06T13:03:05;7.97;;;5.80;;
17201;SDS011;8717;53.588;10.176;2024-03-06T13:05:32;8.07;;;6.20;;
17201;SDS011;8717;53.588;10.176;2024-03-06T13:08:00;5.97;;;5.20;;
17201;SDS011;8717;53.588;10.176;2024-03-06T13:10:27;6.70;;;5.60;;
17201;SDS011;8717;53.588;10.176;2024-03-06T13:12:54;7.97;;;5.60;;
17201;SDS011;8717;53.588;10.176;2024-03-06T13:15:21;7.27;;;5.33;;
17201;SDS011;8717;53.588;10.176;2024-03-06T13:17:47;6.67;;;5.27;;
17201;SDS011;8717;53.588;10.176;2024-03-06T13:20:14;6.13;;;5.43;;
17201;SDS011;8717;53.588;10.176;2024-03-06T13:22:42;6.33;;;5.33;;
17201;SDS011;8717;53.588;10.176;2024-03-06T13:25:10;6.23;;;5.20;;
17201;SDS011;8717;53.588;10.176;2024-03-06T13:27:37;6.90;;;5.43;;
17201;SDS011;8717;53.588;10.176;2024-03-06T13:30:04;7.03;;;5.30;;
17201;SDS011;8717;53.588;10.176;2024-03-06T13:32:33;7.90;;;5.83;;
17201;SDS011;8717;53.588;10.176;2024-03-06T13:35:00;7.13;;;5.30;;
17201;SDS011;8717;53.588;10.176;2024-03-06T13:37:27;7.67;;;5.40;;
17201;SDS011;8717;53.588;10.176;2024-03-06T13:39:54;8.60;;;5.33;;
17201;SDS011;8717;53.588;10.176;2024-03-06T13:42:26;13.27;;;6.07;;
17201;SDS011;8717;53.588;10.176;2024-03-06T13:44:53;7.23;;;5.80;;
17201;SDS011;8717;53.588;10.176;2024-03-06T13:47:20;8.33;;;5.77;;
17201;SDS011;8717;53.588;10.176;2024-03-06T13:49:48;7.80;;;5.70;;
17201;SDS011;8717;53.588;10.176;2024-03-06T13:52:14;7.27;;;5.67;;
17201;SDS011;8717;53.588;10.176;2024-03-06T13:54:45;6.53;;;5.57;;
17201;SDS011;8717;53.588;10.176;2024-03-06T13:57:13;8.63;;;5.80;;
17201;SDS011;8717;53.588;10.176;2024-03-06T13:59:41;7.17;;;5.50;;
17201;SDS011;8717;53.588;10.176;2024-03-06T14:02:08;8.20;;;5.80;;
17201;SDS011;8717;53.588;10.176;2024-03-06T14:04:35;8.77;;;5.53;;
17201;SDS011;8717;53.588;10.176;2024-03-06T14:07:02;7.37;;;5.70;;
17201;SDS011;8717;53.588;10.176;2024-03-06T14:09:29;7.30;;;5.50;;
17201;SDS011;8717;53.588;10.176;2024-03-06T14:11:56;8.03;;;6.10;;
17201;SDS011;8717;53.588;10.176;2024-03-06T14:14:23;8.53;;;6.07;;
17201;SDS011;8717;53.588;10.176;2024-03-06T14:16:51;8.03;;;6.77;;
17201;SDS011;8717;53.588;10.176;2024-03-06T14:19:18;7.30;;;5.80;;
17201;SDS011;8717;53.588;10.176;2024-03-06T14:21:44;8.23;;;5.67;;
17201;SDS011;8717;53.588;10.176;2024-03-06T14:24:12;8.27;;;6.10;;
17201;SDS011;8717;53.588;10.176;2024-03-06T14:26:39;7.10;;;5.97;;
17201;SDS011;8717;53.588;10.176;2024-03-06T14:29:06;7.47;;;5.70;;
17201;SDS011;8717;53.588;10.176;2024-03-06T14:31:34;6.60;;;5.90;;
17201;SDS011;8717;53.588;10.176;2024-03-06T14:34:03;7.63;;;5.63;;
17201;SDS011;8717;53.588;10.176;2024-03-06T14:36:29;6.77;;;5.63;;
17201;SDS011;8717;53.588;10.176;2024-03-06T14:38:57;7.17;;;5.37;;
17201;SDS011;8717;53.588;10.176;2024-03-06T14:41:24;8.23;;;5.80;;
17201;SDS011;8717;53.588;10.176;2024-03-06T14:43:50;7.40;;;5.40;;
17201;SDS011;8717;53.588;10.176;2024-03-06T14:46:17;5.77;;;5.20;;
17201;SDS011;8717;53.588;10.176;2024-03-06T14:48:44;8.20;;;5.90;;
17201;SDS011;8717;53.588;10.176;2024-03-06T14:51:12;7.10;;;5.57;;